Historyczne dane pomiarowe

Dodano dane terminowe – wersja testowa.

Dane z okresu 1951-2019

Wersja bazy: 1.34 [2019-03-16, lista zmian], aktualizacja planowana na 2019-04-15

Dane meteo z obszaru Polski uzyskane na podstawie danych udostępnionych przez Instytut Meteorologii i Gospodarki Wodnej – Państwowy Instytut Badawczy.

 

Wybierz Datę:    

       

TemperaturaWilgotnośćWiatrCiśnienieOpadyŚniegCzas trwania zjawisk
 Stacja t tx tn tng RH VA  wxwx mslp ppp RRR   cm mm wxwxwxwxwxwxwx
1956-11-09 -3.9 1.6 -5.2- 79.5- 4.7 1.0---- 0.0------------
1956-11-08 -1.8 1.6 -4.0- 84.0- 5.0 1.3---- 0.0------------
1956-11-07 1.1 3.0 0.2- 82.8- 7.3 2.3---- 1.0------------
1956-11-06 2.6 5.8 0.7- 85.0- 7.7 3.0---- 1.2------------
1956-11-05 4.5 6.3 -3.0- 89.5- 8.0 2.0---- 2.1------------
1956-11-04 -0.3 4.3 -1.9- 81.5- 5.0 1.0---- 0.0------------
1956-11-03 0.6 3.3 -2.0- 85.8- 8.0 0.7---- 0.2------------
1956-11-02 -0.3 2.0 -4.6- 89.5- 7.3 3.0---- 0.0------------
1956-11-01 -1.4 3.2 -7.0- 73.3- 1.7 0.7---- 0.0------------
1956-10-31 -2.8 3.5 -4.4- 81.8- 4.0 4.0---- 0.0------------
1956-10-30 4.2 6.3 3.0- 91.5- 8.0 0.7---- 0.1------------
1956-10-29 4.4 8.1 2.0- 82.0- 7.3 1.0---- 0.7------------
1956-10-28 8.6 12.1 7.4- 85.3- 5.3 2.7---- 2.3------------
1956-10-27 10.1 14.1 5.1- 88.8- 6.3 2.0---- 0.4------------
1956-10-26 7.6 12.6 2.7- 92.0- 6.3 1.0---- 0.0------------
1956-10-25 9.6 17.2 3.8- 81.8- 0.3 1.0---- 0.0------------
1956-10-24 10.8 16.5 5.8- 85.5- 4.3 1.0---- 0.0------------
1956-10-23 10.9 16.3 7.4- 89.0- 3.7 0.7---- 0.0------------
1956-10-22 12.0 17.9 8.2- 85.3- 2.3 2.0---- 0.0------------
1956-10-21 12.8 17.6 11.2- 88.8- 6.7 1.0---- 0.0------------
1956-10-20 12.2 13.6 11.2- 93.5- 8.0 0.7---- 0.3------------
1956-10-19 12.3 15.0 9.6- 83.3- 7.7 2.7---- 0.2------------
1956-10-18 9.6 15.0 2.3- 87.8- 6.7 1.7---- 0.5------------
1956-10-17 6.0 12.2 -0.3- 83.0- 2.7 1.0---- 0.0------------
1956-10-16 5.8 11.1 0.7- 82.8- 3.3 0.7---- 0.0------------
1956-10-15 5.8 11.0 3.1- 82.3- 0.7 1.7---- 0.0------------
1956-10-14 9.2 12.7 6.8- 70.0- 3.3 5.3---- 3.6------------
1956-10-13 10.0 11.1 6.6- 73.0- 8.0 5.3---- 0.0------------
1956-10-12 8.4 12.4 4.6- 79.5- 6.3 2.7---- 0.0------------
1956-10-11 5.2 9.9 1.8- 77.3- 2.7 2.0---- 0.0------------
1956-10-10 5.3 8.5 4.2- 71.0- 3.3 2.3---- 0.0------------
1956-10-09 6.4 8.1 1.5- 80.0- 7.7 2.3---- 0.0------------
1956-10-08 5.4 9.8 2.7- 84.8- 7.0 1.3---- 0.0------------
1956-10-07 5.7 8.6 4.1- 84.0- 6.7 4.3---- 1.0------------
1956-10-06 6.0 12.2 2.8- 91.0- 8.0 4.7---- 25.2------------
1956-10-05 12.1 16.3 9.3- 75.3- 8.0 1.7---- 7.0------------
1956-10-04 12.1 14.8 11.1- 92.8- 8.0 1.7---- 8.3------------
1956-10-03 16.1 22.5 13.2- 77.0- 8.0 2.0---- 2.2------------
1956-10-02 17.4 26.4 10.6- 72.0- 1.3 1.3---- 0.0------------
1956-10-01 16.2 24.0 8.5- 82.3- 3.0 0.7---- 0.0------------
1956-09-30 15.4 19.5 12.1- 83.3- 7.3 0.7---- 0.0------------
1956-09-29 16.2 21.0 13.0- 80.0- 5.0 1.7---- 0.0------------
1956-09-28 14.0 17.9 12.3- 82.8- 4.7 1.3---- 0.0------------
1956-09-27 16.6 24.0 11.3- 68.5- 5.0 1.7---- 0.0------------
1956-09-26 14.4 23.0 5.6- 68.3- 0.0 0.7---- 0.0------------
1956-09-25 12.0 20.7 3.3- 81.0- 3.7 0.3---- 0.0------------
1956-09-24 10.4 16.2 6.4- 67.3- 2.7 4.7---- 0.0------------
1956-09-23 11.9 18.5 6.4- 78.0- 0.3 3.3---- 0.0------------
1956-09-22 12.6 19.7 5.7- 78.3- 0.0 0.7---- 0.0------------
1956-09-21 12.8 19.5 6.5- 76.5- 0.0 0.7---- 0.0------------
1956-09-20 11.1 17.1 3.5- 79.0- 5.7 0.3---- 0.0------------
1956-09-19 8.8 14.7 3.7- 78.5- 2.0 1.7---- 0.0------------
1956-09-18 8.9 13.1 6.2- 82.0- 5.0 1.7---- 0.0------------
1956-09-17 8.7 12.6 7.2- 91.0- 5.3 2.7---- 7.1------------
1956-09-16 13.2 18.9 9.3- 88.8- 8.0 2.3---- 0.0------------
1956-09-15 13.0 18.1 7.2- 91.5- 4.0 2.0---- 0.0------------
1956-09-14 10.2 14.3 7.1- 89.3- 4.0 1.7---- 0.0------------
1956-09-13 9.3 13.2 8.4- 91.8- 5.7 0.3---- 6.1------------
1956-09-12 12.5 16.7 9.7- 89.0- 8.0 3.3---- 5.4------------
1956-09-11 16.3 20.6 14.2- 91.3- 8.0 2.3---- 0.0------------
224.5 ms

 

Źródłem pochodzenia danych jest Instytut Meteorologii i Gospodarki Wodnej – Państwowy Instytut Badawczy. Dane Instytutu Meteorologii i Gospodarki Wodnej – Państwowego Instytutu Badawczego zostały przetworzone.

Dane źródłowe można odnaleźć na stronie https://dane.imgw.pl